D/T METAR WX W/DIR W/SPE G/SPE TEMP DEWP
24/04/19 19:50 EGUW 241850Z 20011KT CAVOK 12/05 Q0997 BLU SSW (200°) 12.7mph 12°C 5°C
24/04/19 18:50 EGUW 241750Z 20010KT 9999 FEW030 BKN170 13/07 Q0996 BLU NOSIG SSW (200°) 11.5mph 13°C 7°C
24/04/19 17:50 EGUW 241650Z 20015KT 9999 FEW030 SCT180 14/08 Q0996 BLU NOSIG SSW (200°) 17.3mph 14°C 8°C
24/04/19 16:50 EGUW 241550Z 20018KT 9999 FEW030 16/09 Q0994 BLU NOSIG SSW (200°) 20.7mph 16°C 9°C
24/04/19 15:50 EGUW 241450Z 17015KT 9999 FEW030 17/11 Q0993 BLU NOSIG S (170°) 17.3mph 17°C 11°C
24/04/19 14:50 EGUW 241350Z 17016KT 9999 FEW030 SCT090 18/11 Q0993 BLU NOSIG S (170°) 18.4mph 18°C 11°C
24/04/19 13:50 EGUW 241250Z 18013KT 9999 VCSH SCT035 BKN100 18/11 Q0993 BLU TEMPO 6000 SHRA SCT025TCU WHT VCSH S (180°) 15.0mph 18°C 11°C
24/04/19 12:50 EGUW 241150Z 17013KT 9999 FEW035 BKN090 18/12 Q0993 BLU TEMPO 6000 SHRA SCT025TCU WHT S (170°) 15.0mph 18°C 12°C
24/04/19 11:50 EGUW 241050Z 14014KT 9999 FEW035 SCT060 17/10 Q0993 BLU NOSIG SE (140°) 16.1mph 17°C 10°C
24/04/19 10:50 EGUW 240950Z 13009KT CAVOK 19/10 Q0993 BLU NOSIG SE (130°) 10.4mph 19°C 10°C
24/04/19 09:50 EGUW 240850Z 14009KT CAVOK 17/12 Q0993 BLU NOSIG SE (140°) 10.4mph 17°C 12°C
24/04/19 08:50 EGUW 240750Z 13006KT 7000 HZ FEW100 14/11 Q0993 WHT BECMG 9999 NSW BLU HZ SE (130°) 6.9mph 14°C 11°C
24/04/19 07:50 EGUW 240650Z 14008KT 5000 HZ FEW130 12/09 Q0993 WHT BECMG 9999 NSW BLU HZ SE (140°) 9.2mph 12°C 9°C
24/04/19 06:50 EGUW 240550Z 15007KT 4500 HZ BKN130 10/08 Q0993 GRN HZ SSE (150°) 8.1mph 10°C 8°C
24/04/19 05:50 EGUW 240450Z AUTO 15007KT 4600 HZ FEW100/// OVC130/// 10/08 Q0993 HZ SSE (150°) 8.1mph 10°C 8°C
24/04/19 04:50 EGUW 240350Z AUTO 14004KT 5000 HZ OVC110/// 10/08 Q0993 HZ SE (140°) 4.6mph 10°C 8°C
24/04/19 03:50 EGUW 240250Z AUTO 09005KT 6000 HZ OVC110/// 09/08 Q0993 HZ E (90°) 5.8mph 9°C 8°C
24/04/19 02:50 EGUW 240150Z AUTO 07005KT 6000 HZ BKN150/// 09/07 Q0993 HZ ENE (70°) 5.8mph 9°C 7°C
24/04/19 01:50 EGUW 240050Z AUTO 06004KT 7000 HZ FEW240/// 09/07 Q0994 HZ ENE (60°) 4.6mph 9°C 7°C
24/04/19 00:50 EGUW 232350Z AUTO 05006KT 7000 HZ SCT230/// 09/07 Q0994 HZ NE (50°) 6.9mph 9°C 7°C
23/04/19 23:50 EGUW 232250Z AUTO 05006KT 8000 HZ FEW230/// 10/07 Q0995 HZ NE (50°) 6.9mph 10°C 7°C
23/04/19 22:50 EGUW 232150Z AUTO 05008KT 9000 HZ NCD 10/07 Q0995 HZ NE (50°) 9.2mph 10°C 7°C
23/04/19 21:50 EGUW 232050Z AUTO 05008KT 9000 HZ FEW180/// 11/08 Q0995 HZ NE (50°) 9.2mph 11°C 8°C
23/04/19 20:50 EGUW 231950Z 05008KT CAVOK 12/08 Q0996 BLU NE (50°) 9.2mph 12°C 8°C
23/04/19 19:50 EGUW 231850Z 05006KT 9999 FEW025 BKN200 14/07 Q0996 BLU NE (50°) 6.9mph 14°C 7°C
23/04/19 18:50 EGUW 231750Z 07008KT CAVOK 15/07 Q0996 BLU ENE (70°) 9.2mph 15°C 7°C
23/04/19 17:50 EGUW 231650Z 09008KT CAVOK 16/06 Q0996 BLU E (90°) 9.2mph 16°C 6°C
23/04/19 16:50 EGUW 231550Z 09011KT CAVOK 16/06 Q0996 BLU E (90°) 12.7mph 16°C 6°C
23/04/19 15:50 EGUW 231450Z 08011KT CAVOK 17/06 Q0997 BLU NOSIG E (80°) 12.7mph 17°C 6°C
23/04/19 14:50 EGUW 231350Z 08011KT CAVOK 17/06 Q0997 BLU NOSIG E (80°) 12.7mph 17°C 6°C
23/04/19 13:50 EGUW 231250Z 07010KT CAVOK 16/07 Q0998 BLU NOSIG ENE (70°) 11.5mph 16°C 7°C
23/04/19 12:50 EGUW 231150Z 08010KT CAVOK 15/07 Q0998 BLU NOSIG E (80°) 11.5mph 15°C 7°C
23/04/19 11:50 EGUW 231050Z 10008KT CAVOK 16/08 Q0998 BLU NOSIG E (100°) 9.2mph 16°C 8°C
23/04/19 10:50 EGUW 230950Z 08009KT CAVOK 14/08 Q0998 BLU NOSIG E (80°) 10.4mph 14°C 8°C
23/04/19 09:50 EGUW 230850Z 08010KT CAVOK 13/07 Q0998 BLU NOSIG E (80°) 11.5mph 13°C 7°C
23/04/19 08:50 EGUW 230750Z 10008KT CAVOK 12/07 Q0999 BLU NOSIG E (100°) 9.2mph 12°C 7°C
23/04/19 07:50 EGUW 230650Z 09009KT CAVOK 11/06 Q0999 BLU NOSIG E (90°) 10.4mph 11°C 6°C
23/04/19 06:50 EGUW 230550Z 09007KT CAVOK 10/06 Q0999 BLU E (90°) 8.1mph 10°C 6°C
23/04/19 05:50 EGUW 230450Z AUTO 09007KT 9999 NCD 10/05 Q0999 E (90°) 8.1mph 10°C 5°C
23/04/19 04:50 EGUW 230350Z AUTO 09007KT 9999 NCD 11/05 Q0999 E (90°) 8.1mph 11°C 5°C
23/04/19 03:50 EGUW 230250Z AUTO 08007KT 9999 NCD 11/06 Q1000 E (80°) 8.1mph 11°C 6°C
23/04/19 02:50 EGUW 230150Z AUTO 09006KT 9999 NCD 12/06 Q1000 E (90°) 6.9mph 12°C 6°C
23/04/19 01:50 EGUW 230050Z AUTO 08007KT 9999 NCD 12/06 Q1001 E (80°) 8.1mph 12°C 6°C
23/04/19 00:50 EGUW 222350Z AUTO 07007KT 9999 NCD 12/06 Q1001 ENE (70°) 8.1mph 12°C 6°C
22/04/19 23:50 EGUW 222250Z AUTO 08005KT 9999 FEW150/// 13/05 Q1002 E (80°) 5.8mph 13°C 5°C
22/04/19 22:50 EGUW 222150Z AUTO 09004KT 9999 OVC140/// 14/06 Q1002 E (90°) 4.6mph 14°C 6°C
22/04/19 21:50 EGUW 222050Z AUTO 07004KT 9999 BKN150/// 15/06 Q1003 ENE (70°) 4.6mph 15°C 6°C
22/04/19 20:50 EGUW 221950Z AUTO 09005KT 9999 SCT140/// 16/06 Q1003 E (90°) 5.8mph 16°C 6°C
22/04/19 19:50 EGUW 221850Z AUTO 08006KT 9999 BKN130/// 17/07 Q1003 E (80°) 6.9mph 17°C 7°C
22/04/19 18:50 EGUW 221750Z AUTO 11007KT 9999 BKN130/// 20/06 Q1003 ESE (110°) 8.1mph 20°C 6°C
22/04/19 17:50 EGUW 221650Z AUTO 11008KT 9999 NCD 20/05 Q1003 ESE (110°) 9.2mph 20°C 5°C
22/04/19 16:50 EGUW 221550Z AUTO 11012KT 9999 NCD 20/05 Q1004 ESE (110°) 13.8mph 20°C 5°C
22/04/19 15:50 EGUW 221450Z AUTO 11013KT 9999 NCD 22/04 Q1004 ESE (110°) 15.0mph 22°C 4°C
22/04/19 14:50 EGUW 221350Z AUTO 11012KT 9999 NCD 22/04 Q1005 ESE (110°) 13.8mph 22°C 4°C
22/04/19 13:50 EGUW 221250Z AUTO 11010KT 9999 NCD 22/06 Q1005 ESE (110°) 11.5mph 22°C 6°C
22/04/19 12:50 EGUW 221150Z AUTO 10011KT 9999 FEW140/// 21/05 Q1006 E (100°) 12.7mph 21°C 5°C
22/04/19 11:50 EGUW 221050Z AUTO 11012KT 9999 BKN160/// 21/05 Q1007 ESE (110°) 13.8mph 21°C 5°C
22/04/19 10:50 EGUW 220950Z AUTO 11010KT 9999 FEW190/// 19/07 Q1007 ESE (110°) 11.5mph 19°C 7°C
22/04/19 09:50 EGUW 220850Z AUTO 09008KT 9999 NCD 18/07 Q1008 E (90°) 9.2mph 18°C 7°C
22/04/19 08:50 EGUW 220750Z AUTO 10007KT 9999 NCD 15/08 Q1008 E (100°) 8.1mph 15°C 8°C
22/04/19 07:50 EGUW 220650Z AUTO 09006KT 9999 NCD 12/07 Q1009 E (90°) 6.9mph 12°C 7°C
22/04/19 06:50 EGUW 220550Z AUTO 09006KT 8000 HZ NCD 10/07 Q1009 HZ E (90°) 6.9mph 10°C 7°C
22/04/19 05:50 EGUW 220450Z AUTO 08004KT 6000 HZ NCD 08/06 Q1009 HZ E (80°) 4.6mph 8°C 6°C
22/04/19 04:50 EGUW 220350Z AUTO 09005KT 6000 HZ NCD 08/06 Q1010 HZ E (90°) 5.8mph 8°C 6°C
22/04/19 03:50 EGUW 220250Z AUTO 10006KT 7000 HZ NCD 08/06 Q1011 HZ E (100°) 6.9mph 8°C 6°C
22/04/19 02:50 EGUW 220150Z AUTO 10006KT 8000 HZ NCD 09/05 Q1012 HZ E (100°) 6.9mph 9°C 5°C
22/04/19 01:50 EGUW 220050Z AUTO 09006KT 9999 NCD 09/05 Q1013 E (90°) 6.9mph 9°C 5°C
22/04/19 00:50 EGUW 212350Z AUTO 09006KT 9999 NCD 09/04 Q1013 E (90°) 6.9mph 9°C 4°C
21/04/19 23:50 EGUW 212250Z AUTO 09007KT 9999 NCD 09/03 Q1014 E (90°) 8.1mph 9°C 3°C
21/04/19 22:50 EGUW 212150Z AUTO 11006KT 9999 NCD 10/03 Q1015 ESE (110°) 6.9mph 10°C 3°C
21/04/19 21:50 EGUW 212050Z AUTO 11005KT 9999 NCD 12/02 Q1015 ESE (110°) 5.8mph 12°C 2°C
21/04/19 20:50 EGUW 211950Z AUTO 10004KT 9999 NCD 13/02 Q1016 E (100°) 4.6mph 13°C 2°C
21/04/19 19:50 EGUW 211850Z AUTO 09005KT 9999 NCD 15/03 Q1016 E (90°) 5.8mph 15°C 3°C
21/04/19 18:50 EGUW 211750Z AUTO 11005KT 9999 NCD 18/02 Q1016 ESE (110°) 5.8mph 18°C 2°C
21/04/19 17:50 EGUW 211650Z AUTO 12007KT 9999 NCD 19/02 Q1017 ESE (120°) 8.1mph 19°C 2°C
21/04/19 16:50 EGUW 211550Z AUTO 15009KT 9999 NCD 19/03 Q1017 SSE (150°) 10.4mph 19°C 3°C
21/04/19 15:50 EGUW 211450Z AUTO 15009KT 9999 NCD 20/03 Q1018 SSE (150°) 10.4mph 20°C 3°C
21/04/19 14:50 EGUW 211350Z AUTO 13009KT 9999 NCD 20/02 Q1019 SE (130°) 10.4mph 20°C 2°C
21/04/19 13:50 EGUW 211250Z AUTO 15011KT 9999 NCD 20/03 Q1020 SSE (150°) 12.7mph 20°C 3°C
21/04/19 12:50 EGUW 211150Z AUTO 14009KT 9999 NCD 20/03 Q1020 SE (140°) 10.4mph 20°C 3°C
21/04/19 11:50 EGUW 211050Z AUTO 13008KT 9999 NCD 19/06 Q1021 SE (130°) 9.2mph 19°C 6°C
21/04/19 10:50 EGUW 210950Z AUTO 12007KT 9999 NCD 18/08 Q1022 ESE (120°) 8.1mph 18°C 8°C
21/04/19 09:50 EGUW 210850Z AUTO 11005KT 9999 NCD 16/08 Q1022 ESE (110°) 5.8mph 16°C 8°C
21/04/19 08:50 EGUW 210750Z AUTO 08004KT 9999 NCD 13/08 Q1023 E (80°) 4.6mph 13°C 8°C
21/04/19 07:50 EGUW 210650Z AUTO 08005KT 9999 NCD 10/06 Q1023 E (80°) 5.8mph 10°C 6°C
21/04/19 06:50 EGUW 210550Z AUTO 05004KT 9999 NCD 09/05 Q1023 NE (50°) 4.6mph 9°C 5°C
21/04/19 05:50 EGUW 210450Z AUTO 04006KT 7000 HZ NCD 06/03 Q1023 HZ NE (40°) 6.9mph 6°C 3°C
21/04/19 04:50 EGUW 210350Z AUTO 06006KT 9000 HZ NCD 08/04 Q1024 HZ ENE (60°) 6.9mph 8°C 4°C
21/04/19 03:50 EGUW 210250Z AUTO 03006KT 9000 HZ NCD 08/05 Q1024 HZ NNE (30°) 6.9mph 8°C 5°C
21/04/19 02:50 EGUW 210150Z AUTO 04007KT 9999 NCD 08/04 Q1025 NE (40°) 8.1mph 8°C 4°C
21/04/19 01:50 EGUW 210050Z AUTO 02005KT 9999 NCD 08/04 Q1026 NNE (20°) 5.8mph 8°C 4°C
21/04/19 00:50 EGUW 202350Z AUTO 03005KT 9999 NCD 09/04 Q1027 NNE (30°) 5.8mph 9°C 4°C
20/04/19 23:50 EGUW 202250Z AUTO 04005KT 9999 NCD 10/04 Q1027 NE (40°) 5.8mph 10°C 4°C
20/04/19 22:50 EGUW 202150Z AUTO 05004KT 9999 NCD 10/04 Q1028 NE (50°) 4.6mph 10°C 4°C
20/04/19 21:50 EGUW 202050Z AUTO 07005KT 9999 NCD 12/06 Q1028 ENE (70°) 5.8mph 12°C 6°C
20/04/19 20:50 EGUW 201950Z AUTO 06006KT 9999 NCD 14/05 Q1028 ENE (60°) 6.9mph 14°C 5°C
20/04/19 19:50 EGUW 201850Z AUTO 07007KT 9999 NCD 16/04 Q1028 ENE (70°) 8.1mph 16°C 4°C
20/04/19 18:50 EGUW 201750Z AUTO 06008KT 9999 NCD 19/06 Q1028 ENE (60°) 9.2mph 19°C 6°C
20/04/19 17:50 EGUW 201650Z AUTO 06010KT 9999 NCD 20/07 Q1028 ENE (60°) 11.5mph 20°C 7°C
20/04/19 16:50 EGUW 201550Z AUTO 06010KT 9999 NCD 21/04 Q1028 ENE (60°) 11.5mph 21°C 4°C
20/04/19 15:50 EGUW 201450Z AUTO 07009KT 9999 NCD 22/04 Q1029 ENE (70°) 10.4mph 22°C 4°C
20/04/19 14:50 EGUW 201350Z AUTO 05008KT 9999 NCD 23/06 Q1029 NE (50°) 9.2mph 23°C 6°C
20/04/19 13:50 EGUW 201250Z AUTO 04008KT 9999 NCD 22/06 Q1030 NE (40°) 9.2mph 22°C 6°C
20/04/19 12:50 EGUW 201150Z AUTO 08008KT 9999 NCD 22/07 Q1030 E (80°) 9.2mph 22°C 7°C
20/04/19 11:50 EGUW 201050Z AUTO 07007KT 9999 NCD 20/11 Q1030 ENE (70°) 8.1mph 20°C 11°C
20/04/19 10:50 EGUW 200950Z AUTO 04008KT 9999 NCD 17/11 Q1031 NE (40°) 9.2mph 17°C 11°C
20/04/19 09:50 EGUW 200850Z AUTO 03009KT 9999 NCD 14/10 Q1030 NNE (30°) 10.4mph 14°C 10°C
20/04/19 08:50 EGUW 200750Z AUTO 02008KT 7000 HZ NCD 11/09 Q1031 HZ NNE (20°) 9.2mph 11°C 9°C
20/04/19 07:50 EGUW 200650Z AUTO 02009KT 6000 HZ NCD 09/08 Q1031 HZ NNE (20°) 10.4mph 9°C 8°C
20/04/19 06:50 EGUW 200550Z AUTO 02010KT 5000 BR NCD 07/06 Q1031 BR NNE (20°) 11.5mph 7°C 6°C
20/04/19 05:50 EGUW 200450Z AUTO 36009KT 3900 BR NCD 06/05 Q1030 BR N (360°) 10.4mph 6°C 5°C
20/04/19 04:50 EGUW 200350Z AUTO 36009KT 4800 BR NCD 07/06 Q1030 BR N (360°) 10.4mph 7°C 6°C
20/04/19 03:50 EGUW 200250Z AUTO 36008KT 4200 BR NCD 06/05 Q1030 BR N (360°) 9.2mph 6°C 5°C
20/04/19 02:50 EGUW 200150Z AUTO 02008KT 4800 HZ NCD 06/05 Q1030 HZ NNE (20°) 9.2mph 6°C 5°C
20/04/19 01:50 EGUW 200050Z AUTO 01007KT 4500 BR NCD 06/06 Q1030 BR N (10°) 8.1mph 6°C 6°C
20/04/19 00:50 EGUW 192350Z AUTO 03008KT 6000 HZ NCD 08/06 Q1030 HZ NNE (30°) 9.2mph 8°C 6°C
19/04/19 23:50 EGUW 192250Z AUTO 01007KT 6000 HZ NCD 08/06 Q1031 HZ N (10°) 8.1mph 8°C 6°C
19/04/19 22:50 EGUW 192150Z AUTO 02007KT 8000 HZ NCD 08/05 Q1031 HZ NNE (20°) 8.1mph 8°C 5°C
19/04/19 21:50 EGUW 192050Z AUTO 03007KT 9000 HZ NCD 10/06 Q1031 HZ NNE (30°) 8.1mph 10°C 6°C
19/04/19 20:50 EGUW 191950Z AUTO 04006KT 9999 NCD 12/06 Q1030 NE (40°) 6.9mph 12°C 6°C
19/04/19 19:50 EGUW 191850Z AUTO 06007KT 9999 NCD 15/06 Q1030 ENE (60°) 8.1mph 15°C 6°C
19/04/19 18:50 EGUW 191750Z AUTO 06007KT 9999 NCD 18/08 Q1029 ENE (60°) 8.1mph 18°C 8°C
19/04/19 17:50 EGUW 191650Z AUTO 08008KT 9999 NCD 19/06 Q1029 E (80°) 9.2mph 19°C 6°C
19/04/19 16:50 EGUW 191550Z AUTO 06009KT 9999 NCD 20/06 Q1029 ENE (60°) 10.4mph 20°C 6°C
19/04/19 15:50 EGUW 191450Z AUTO 08008KT 9999 NCD 21/07 Q1029 E (80°) 9.2mph 21°C 7°C
19/04/19 14:50 EGUW 191350Z AUTO 06010KT 9999 NCD 21/07 Q1029 ENE (60°) 11.5mph 21°C 7°C
19/04/19 13:50 EGUW 191250Z AUTO 09010KT 9999 NCD 20/07 Q1029 E (90°) 11.5mph 20°C 7°C
19/04/19 12:50 EGUW 191150Z AUTO 06011KT 9999 NCD 20/06 Q1029 ENE (60°) 12.7mph 20°C 6°C
19/04/19 11:50 EGUW 191050Z AUTO 08010KT 9999 NCD 19/06 Q1029 E (80°) 11.5mph 19°C 6°C
19/04/19 10:50 EGUW 190950Z AUTO 07009KT 9999 NCD 18/07 Q1029 ENE (70°) 10.4mph 18°C 7°C
19/04/19 09:50 EGUW 190850Z AUTO 08009KT 9999 NCD 16/07 Q1028 E (80°) 10.4mph 16°C 7°C
19/04/19 08:50 EGUW 190750Z AUTO 08008KT 9999 NCD 13/08 Q1028 E (80°) 9.2mph 13°C 8°C
19/04/19 07:50 EGUW 190650Z AUTO 06010KT 9000 HZ NCD 10/07 Q1028 HZ ENE (60°) 11.5mph 10°C 7°C
19/04/19 06:50 EGUW 190550Z AUTO 05008KT 8000 HZ NCD 07/05 Q1028 HZ NE (50°) 9.2mph 7°C 5°C
19/04/19 05:50 EGUW 190450Z AUTO 05008KT 7000 HZ NCD 07/05 Q1027 HZ NE (50°) 9.2mph 7°C 5°C
19/04/19 04:50 EGUW 190350Z AUTO 04009KT 6000 HZ NCD 07/05 Q1027 HZ NE (40°) 10.4mph 7°C 5°C
19/04/19 03:50 EGUW 190250Z AUTO 04008KT 6000 HZ NCD 07/05 Q1027 HZ NE (40°) 9.2mph 7°C 5°C
19/04/19 02:50 EGUW 190150Z AUTO 03007KT 6000 HZ NCD 07/05 Q1026 HZ NNE (30°) 8.1mph 7°C 5°C
19/04/19 01:50 EGUW 190050Z AUTO 04008KT 6000 HZ NCD 08/06 Q1026 HZ NE (40°) 9.2mph 8°C 6°C
19/04/19 00:50 EGUW 182350Z AUTO 04007KT 7000 HZ NCD 08/06 Q1026 HZ NE (40°) 8.1mph 8°C 6°C
18/04/19 23:50 EGUW 182250Z AUTO 04007KT 9000 HZ NCD 08/06 Q1026 HZ NE (40°) 8.1mph 8°C 6°C
18/04/19 22:50 EGUW 182150Z AUTO 05005KT 9999 NCD 09/06 Q1026 NE (50°) 5.8mph 9°C 6°C
18/04/19 21:50 EGUW 182050Z AUTO 05007KT 9999 NCD 11/06 Q1026 NE (50°) 8.1mph 11°C 6°C
18/04/19 20:50 EGUW 181950Z AUTO 06007KT 9999 NCD 12/06 Q1026 ENE (60°) 8.1mph 12°C 6°C